Time;durP1;ratioP1;P1;durP2;ratioP2;P2;SDS_P1;SDS_P2;PMS_P1;PMS_P2;Temp;Humidity;BMP_temperature;BMP_pressure;BME280_temperature;BME280_humidity;BME280_pressure;Samples;Min_cycle;Max_cycle;Signal;HPM_P1;HPM_P2
2023/08/02 00:00:07;;;;;;;5.13;2.60;;;17.50;85.30;;;;;;5072260;28;20364;-69
2023/08/02 00:02:33;;;;;;;5.72;2.40;;;17.40;85.30;;;;;;5067184;28;20031;-69
2023/08/02 00:04:58;;;;;;;4.88;2.28;;;17.40;85.40;;;;;;5072169;28;20029;-70
2023/08/02 00:07:24;;;;;;;4.32;2.10;;;17.40;85.40;;;;;;5072004;28;20082;-69
2023/08/02 00:09:49;;;;;;;5.93;2.22;;;17.40;85.30;;;;;;5072595;28;20028;-70
2023/08/02 00:12:15;;;;;;;4.03;2.20;;;17.50;85.20;;;;;;5071154;28;20453;-69
2023/08/02 00:14:40;;;;;;;4.78;2.22;;;17.50;85.10;;;;;;5065813;28;20356;-69
2023/08/02 00:17:06;;;;;;;5.70;2.28;;;17.50;85.20;;;;;;5071852;28;20051;-69
2023/08/02 00:19:32;;;;;;;4.90;2.30;;;17.40;85.20;;;;;;5072216;28;20078;-70
2023/08/02 00:21:58;;;;;;;4.60;2.10;;;17.40;85.20;;;;;;5071548;28;20479;-70
2023/08/02 00:24:23;;;;;;;5.88;2.30;;;17.40;85.30;;;;;;5071672;28;20029;-70
2023/08/02 00:26:49;;;;;;;7.40;2.58;;;17.40;85.30;;;;;;5072271;28;20099;-69
2023/08/02 00:29:14;;;;;;;6.30;2.45;;;17.40;85.30;;;;;;5072379;28;20054;-69
2023/08/02 00:31:40;;;;;;;4.55;2.28;;;17.40;85.30;;;;;;5070967;28;20062;-70
2023/08/02 00:34:06;;;;;;;5.13;2.45;;;17.40;85.50;;;;;;5071929;28;20028;-69
2023/08/02 00:36:31;;;;;;;6.45;2.50;;;17.30;85.60;;;;;;5071819;28;20059;-69
2023/08/02 00:38:57;;;;;;;6.28;2.50;;;17.30;86.00;;;;;;5071157;28;20056;-69
2023/08/02 00:41:22;;;;;;;6.03;2.72;;;17.20;85.90;;;;;;5071633;28;20027;-69
2023/08/02 00:43:48;;;;;;;6.25;3.15;;;17.30;86.00;;;;;;5071628;28;20025;-69
2023/08/02 00:46:15;;;;;;;7.65;2.78;;;17.20;86.40;;;;;;5071796;28;20460;-69
2023/08/02 00:48:43;;;;;;;6.82;2.50;;;17.20;86.50;;;;;;5070315;28;20021;-69
2023/08/02 00:51:15;;;;;;;6.43;2.80;;;17.20;86.50;;;;;;5071703;28;20047;-69
2023/08/02 00:53:41;;;;;;;5.03;2.22;;;17.20;86.50;;;;;;5071828;28;20499;-70
2023/08/02 00:56:07;;;;;;;6.03;2.78;;;17.10;86.50;;;;;;5071814;28;20024;-70
2023/08/02 00:58:33;;;;;;;6.88;2.67;;;17.10;87.20;;;;;;5071017;28;20379;-70
2023/08/02 01:01:08;;;;;;;6.78;2.85;;;17.10;87.00;;;;;;5070220;28;20386;-70
2023/08/02 01:03:43;;;;;;;5.10;2.67;;;17.00;87.30;;;;;;5069172;28;20343;-70
2023/08/02 01:06:23;;;;;;;6.30;2.28;;;17.10;87.40;;;;;;5071695;28;20104;-70
2023/08/02 01:08:56;;;;;;;6.80;3.03;;;17.00;87.50;;;;;;5070994;28;20031;-70
2023/08/02 01:11:32;;;;;;;5.65;3.00;;;17.00;87.70;;;;;;5070447;28;20055;-70
2023/08/02 01:13:58;;;;;;;6.18;2.90;;;17.00;87.90;;;;;;5070786;28;20103;-70
2023/08/02 01:16:24;;;;;;;6.03;2.75;;;17.00;88.00;;;;;;5071050;28;20024;-70
2023/08/02 01:18:50;;;;;;;4.93;2.70;;;17.00;88.20;;;;;;5071234;28;20116;-70
2023/08/02 01:21:16;;;;;;;4.35;2.20;;;17.00;88.20;;;;;;5069620;28;20504;-70
2023/08/02 01:23:42;;;;;;;5.10;2.72;;;17.00;88.20;;;;;;5070871;28;20048;-70
2023/08/02 01:26:08;;;;;;;6.80;3.20;;;17.00;88.10;;;;;;5070572;28;20102;-69
2023/08/02 01:28:39;;;;;;;5.50;2.80;;;17.00;88.40;;;;;;5070283;28;20048;-70
2023/08/02 01:31:05;;;;;;;5.25;2.70;;;17.00;88.60;;;;;;5070680;28;20032;-70
2023/08/02 01:33:43;;;;;;;7.03;3.13;;;17.00;88.70;;;;;;5071264;28;20017;-70
2023/08/02 01:36:08;;;;;;;7.55;3.30;;;17.00;89.00;;;;;;5069441;28;20016;-69
2023/08/02 01:38:34;;;;;;;7.38;3.60;;;16.90;89.20;;;;;;5066559;28;20028;-69
2023/08/02 01:41:00;;;;;;;6.22;2.92;;;16.90;89.40;;;;;;5068961;28;20046;-70
2023/08/02 01:43:25;;;;;;;6.57;2.95;;;16.90;89.70;;;;;;5070630;28;20085;-70
2023/08/02 01:45:51;;;;;;;9.02;3.08;;;16.90;89.90;;;;;;5066872;28;20029;-69
2023/08/02 01:48:16;;;;;;;6.57;3.08;;;16.80;89.90;;;;;;5070018;28;20548;-70
2023/08/02 01:50:42;;;;;;;5.57;2.60;;;16.80;90.00;;;;;;5070623;28;20028;-70
2023/08/02 01:53:07;;;;;;;6.57;3.00;;;16.80;90.10;;;;;;5068509;28;20028;-70
2023/08/02 01:55:34;;;;;;;6.72;3.15;;;16.80;90.20;;;;;;5069722;28;20021;-70
2023/08/02 01:58:00;;;;;;;5.70;2.50;;;16.80;90.20;;;;;;5070198;28;20070;-70
2023/08/02 02:00:26;;;;;;;5.82;2.75;;;16.80;90.20;;;;;;5070049;28;20021;-70
2023/08/02 02:02:51;;;;;;;7.47;2.83;;;16.80;90.30;;;;;;5069415;28;20544;-70
2023/08/02 02:05:17;;;;;;;5.25;2.97;;;16.80;90.40;;;;;;5070044;28;20028;-70
2023/08/02 02:07:42;;;;;;;7.28;2.60;;;16.80;90.40;;;;;;5068748;28;20514;-70
2023/08/02 02:10:08;;;;;;;8.45;2.80;;;16.80;90.40;;;;;;5070103;28;20031;-70
2023/08/02 02:12:34;;;;;;;5.82;2.85;;;16.80;90.50;;;;;;5069255;28;20103;-70
2023/08/02 02:14:59;;;;;;;6.63;2.97;;;16.80;90.50;;;;;;5070045;28;20017;-70
2023/08/02 02:17:25;;;;;;;6.25;2.55;;;16.80;90.60;;;;;;5069969;28;20024;-70
2023/08/02 02:19:51;;;;;;;6.43;2.88;;;16.90;90.60;;;;;;5069258;28;20024;-70
2023/08/02 02:22:16;;;;;;;6.00;3.15;;;16.90;90.60;;;;;;5069890;28;20028;-70
2023/08/02 02:24:42;;;;;;;7.63;3.30;;;16.90;90.70;;;;;;5069777;28;20392;-70
2023/08/02 02:27:07;;;;;;;5.88;2.92;;;16.80;90.90;;;;;;5070058;28;20048;-70
2023/08/02 02:29:33;;;;;;;5.32;2.92;;;16.80;91.00;;;;;;5069814;28;20547;-70
2023/08/02 02:31:58;;;;;;;5.07;2.42;;;16.80;91.00;;;;;;5068916;28;20032;-70
2023/08/02 02:34:24;;;;;;;5.85;2.50;;;16.80;91.00;;;;;;5069720;28;20024;-70
2023/08/02 02:36:49;;;;;;;7.38;3.05;;;16.80;91.00;;;;;;5069903;28;20494;-70
2023/08/02 02:39:15;;;;;;;6.00;2.90;;;16.80;91.10;;;;;;5069056;28;20386;-70
2023/08/02 02:41:41;;;;;;;5.90;3.03;;;16.80;91.10;;;;;;5069788;28;20033;-70
2023/08/02 02:44:06;;;;;;;5.82;3.00;;;16.80;91.20;;;;;;5069111;28;20077;-69
2023/08/02 02:46:32;;;;;;;7.43;3.80;;;16.80;91.20;;;;;;5068342;28;20032;-70
2023/08/02 02:48:57;;;;;;;6.18;3.28;;;16.70;91.30;;;;;;5071601;28;20044;-70
2023/08/02 02:51:23;;;;;;;4.53;2.90;;;16.70;91.40;;;;;;5073471;28;20070;-70
2023/08/02 02:53:48;;;;;;;5.50;2.72;;;16.70;91.40;;;;;;5073818;28;20035;-69
2023/08/02 02:56:14;;;;;;;6.38;2.78;;;16.70;91.40;;;;;;5072863;28;20017;-69
2023/08/02 02:58:39;;;;;;;4.35;2.33;;;16.70;91.40;;;;;;5073648;28;20028;-69
2023/08/02 03:01:05;;;;;;;4.57;2.83;;;16.80;91.40;;;;;;5073598;28;20032;-70
2023/08/02 03:03:31;;;;;;;5.35;2.45;;;16.70;91.30;;;;;;5072822;28;20016;-69
2023/08/02 03:05:56;;;;;;;5.55;2.40;;;16.70;91.30;;;;;;5072971;28;20100;-69
2023/08/02 03:08:22;;;;;;;6.45;2.60;;;16.80;91.40;;;;;;5073450;28;20029;-70
2023/08/02 03:10:47;;;;;;;4.28;2.53;;;16.80;91.50;;;;;;5071880;28;20387;-69
2023/08/02 03:13:13;;;;;;;6.00;2.83;;;16.70;91.40;;;;;;5071543;28;20029;-70
2023/08/02 03:15:39;;;;;;;4.75;2.45;;;16.80;91.50;;;;;;5073333;28;20025;-69
2023/08/02 03:18:04;;;;;;;4.13;2.42;;;16.80;91.50;;;;;;5073156;28;20031;-69
2023/08/02 03:20:30;;;;;;;7.57;2.70;;;16.70;91.60;;;;;;5073084;28;20048;-69
2023/08/02 03:22:55;;;;;;;6.72;2.70;;;16.80;91.60;;;;;;5073181;28;20032;-69
2023/08/02 03:25:21;;;;;;;6.47;2.40;;;16.70;91.60;;;;;;5073693;28;20035;-69
2023/08/02 03:27:46;;;;;;;4.60;2.25;;;16.80;91.70;;;;;;5073431;28;20032;-70
2023/08/02 03:30:12;;;;;;;5.50;2.70;;;16.80;91.60;;;;;;5072651;28;20116;-69
2023/08/02 03:32:37;;;;;;;6.95;2.20;;;16.80;91.70;;;;;;5072849;28;20039;-69
2023/08/02 03:35:03;;;;;;;5.63;2.20;;;16.80;91.70;;;;;;5071920;28;20431;-69
2023/08/02 03:37:29;;;;;;;3.90;2.17;;;16.80;91.70;;;;;;5072314;28;20070;-69
2023/08/02 03:39:54;;;;;;;5.53;2.33;;;16.80;91.60;;;;;;5072794;28;20168;-69
2023/08/02 03:42:20;;;;;;;5.50;2.97;;;16.80;91.60;;;;;;5072936;28;20109;-69
2023/08/02 03:44:46;;;;;;;5.20;2.60;;;16.90;91.50;;;;;;5072089;28;20031;-69
2023/08/02 03:47:11;;;;;;;7.18;2.60;;;16.90;91.50;;;;;;5072592;28;20032;-69
2023/08/02 03:49:37;;;;;;;4.63;2.10;;;16.90;91.40;;;;;;5072646;28;20025;-69
2023/08/02 03:52:03;;;;;;;4.32;2.13;;;16.90;91.40;;;;;;5072986;28;20017;-69
2023/08/02 03:54:29;;;;;;;5.70;2.65;;;17.00;91.40;;;;;;5071641;28;20052;-70
2023/08/02 03:56:54;;;;;;;3.70;2.40;;;16.90;91.50;;;;;;5072643;28;20052;-69
2023/08/02 03:59:20;;;;;;;4.20;2.15;;;16.90;91.60;;;;;;5070814;28;20025;-70
2023/08/02 04:01:45;;;;;;;4.63;2.55;;;16.80;91.70;;;;;;5072499;28;20024;-69
2023/08/02 04:04:11;;;;;;;4.25;2.45;;;16.80;91.80;;;;;;5070768;28;20032;-69
2023/08/02 04:06:37;;;;;;;6.00;2.70;;;16.70;92.00;;;;;;5072359;28;20433;-69
2023/08/02 04:09:02;;;;;;;6.18;2.80;;;16.70;92.20;;;;;;5072496;28;20030;-70
2023/08/02 04:11:28;;;;;;;6.95;2.75;;;16.70;92.30;;;;;;5071731;28;20112;-69
2023/08/02 04:13:54;;;;;;;5.45;2.78;;;16.60;92.40;;;;;;5072460;28;20020;-69
2023/08/02 04:16:19;;;;;;;5.78;2.65;;;16.60;92.50;;;;;;5072456;28;20502;-69
2023/08/02 04:18:45;;;;;;;7.40;3.20;;;16.60;92.60;;;;;;5072196;28;20549;-70
2023/08/02 04:21:19;;;;;;;5.68;3.15;;;16.60;92.80;;;;;;5072587;28;20103;-70
2023/08/02 04:23:46;;;;;;;4.93;3.00;;;16.60;92.90;;;;;;5072142;28;20028;-70
2023/08/02 04:26:11;;;;;;;7.05;3.42;;;16.60;93.00;;;;;;5071919;28;20024;-70
2023/08/02 04:28:37;;;;;;;5.63;3.00;;;16.60;93.20;;;;;;5070005;28;20024;-70
2023/08/02 04:31:02;;;;;;;8.23;3.80;;;16.60;93.30;;;;;;5071619;28;20040;-69
2023/08/02 04:33:28;;;;;;;6.75;3.25;;;16.60;93.50;;;;;;5071925;28;20093;-70
2023/08/02 04:35:57;;;;;;;7.40;3.95;;;16.60;93.50;;;;;;5070944;28;20056;-69
2023/08/02 04:38:23;;;;;;;8.68;4.18;;;16.60;93.70;;;;;;5071690;28;20021;-69
2023/08/02 04:40:48;;;;;;;7.55;3.50;;;16.60;94.10;;;;;;5072005;28;20032;-69
2023/08/02 04:43:14;;;;;;;7.60;3.05;;;16.60;93.80;;;;;;5071814;28;20028;-70
2023/08/02 04:45:40;;;;;;;6.10;3.40;;;16.70;93.80;;;;;;5070961;28;20032;-70
2023/08/02 04:48:05;;;;;;;4.72;2.50;;;16.70;93.70;;;;;;5071660;28;20021;-69
2023/08/02 04:50:34;;;;;;;4.60;2.70;;;16.80;93.60;;;;;;5071593;28;20028;-69
2023/08/02 04:53:00;;;;;;;7.03;3.25;;;16.80;93.40;;;;;;5069954;28;20025;-69
2023/08/02 04:55:26;;;;;;;4.97;2.90;;;16.90;93.40;;;;;;5070628;28;20518;-69
2023/08/02 04:57:51;;;;;;;7.95;3.55;;;16.90;93.40;;;;;;5071155;28;20344;-69
2023/08/02 05:00:17;;;;;;;6.43;3.38;;;16.90;93.50;;;;;;5070102;28;20016;-69
2023/08/02 05:02:42;;;;;;;5.88;2.60;;;16.90;93.50;;;;;;5068668;28;20064;-69
2023/08/02 05:05:09;;;;;;;8.40;3.72;;;16.90;93.50;;;;;;5071064;28;20024;-69
2023/08/02 05:07:35;;;;;;;7.47;2.85;;;16.90;93.60;;;;;;5071216;28;20122;-69
2023/08/02 05:10:04;;;;;;;6.65;3.03;;;16.90;93.60;;;;;;5071313;28;20306;-70
2023/08/02 05:12:34;;;;;;;8.55;3.42;;;16.90;93.60;;;;;;5069278;28;20020;-70
2023/08/02 05:15:00;;;;;;;6.38;3.53;;;16.90;93.60;;;;;;5069713;28;20397;-69
2023/08/02 05:17:29;;;;;;;6.28;2.92;;;16.90;93.60;;;;;;5071015;28;20021;-69
2023/08/02 05:19:56;;;;;;;5.70;3.00;;;16.90;93.60;;;;;;5063274;28;20455;-69
2023/08/02 05:22:22;;;;;;;6.03;2.80;;;17.00;93.80;;;;;;5070426;28;20023;-69
2023/08/02 05:24:49;;;;;;;6.47;3.30;;;17.00;93.40;;;;;;5070657;28;20111;-70
2023/08/02 05:27:14;;;;;;;5.40;2.78;;;17.00;93.40;;;;;;5070067;28;20119;-69
2023/08/02 05:29:40;;;;;;;4.93;2.65;;;17.00;93.60;;;;;;5070404;28;20112;-70
2023/08/02 05:32:06;;;;;;;5.78;2.58;;;17.00;93.60;;;;;;5070874;28;20090;-69
2023/08/02 05:34:31;;;;;;;5.72;3.35;;;17.10;93.50;;;;;;5070498;28;20099;-69
2023/08/02 05:36:57;;;;;;;4.32;2.42;;;17.10;93.60;;;;;;5070088;28;20494;-70
2023/08/02 05:39:23;;;;;;;4.82;2.58;;;17.10;93.60;;;;;;5070983;28;20017;-69
2023/08/02 05:41:48;;;;;;;5.72;2.63;;;17.10;93.50;;;;;;5070885;28;20039;-69
2023/08/02 05:44:14;;;;;;;4.97;2.60;;;17.20;93.40;;;;;;5070634;28;20034;-69
2023/08/02 05:46:39;;;;;;;4.45;2.50;;;17.10;93.40;;;;;;5069958;28;20095;-69
2023/08/02 05:49:05;;;;;;;5.97;3.10;;;17.20;93.40;;;;;;5070215;28;20079;-69
2023/08/02 05:51:30;;;;;;;8.65;3.00;;;17.10;93.50;;;;;;5070468;28;20020;-69
2023/08/02 05:53:56;;;;;;;3.95;2.50;;;17.20;93.50;;;;;;5070634;28;20556;-69
2023/08/02 05:56:22;;;;;;;4.55;2.42;;;17.20;93.40;;;;;;5069535;28;20032;-69
2023/08/02 05:58:47;;;;;;;6.68;3.03;;;17.20;93.40;;;;;;5070952;28;20097;-69
2023/08/02 06:01:13;;;;;;;5.35;3.17;;;17.20;93.50;;;;;;5071262;28;20020;-69
2023/08/02 06:03:38;;;;;;;3.95;2.50;;;17.20;93.50;;;;;;5065303;28;20027;-70
2023/08/02 06:06:04;;;;;;;5.57;3.05;;;17.20;93.60;;;;;;5070616;28;20032;-69
2023/08/02 06:08:30;;;;;;;5.25;3.20;;;17.10;93.90;;;;;;5070321;28;20107;-69
2023/08/02 06:10:55;;;;;;;4.90;3.22;;;17.10;94.00;;;;;;5069625;28;20042;-69
2023/08/02 06:13:21;;;;;;;5.15;3.17;;;17.00;94.20;;;;;;5069940;28;20021;-69
2023/08/02 06:15:46;;;;;;;7.20;3.20;;;17.00;94.30;;;;;;5070005;28;20046;-69
2023/08/02 06:18:12;;;;;;;5.53;2.85;;;17.00;94.50;;;;;;5069951;28;20063;-69
2023/08/02 06:20:37;;;;;;;5.15;3.25;;;17.00;94.50;;;;;;5069566;28;20012;-70
2023/08/02 06:23:03;;;;;;;6.97;3.20;;;17.00;94.60;;;;;;5069595;28;20074;-69
2023/08/02 06:25:29;;;;;;;7.97;3.50;;;17.00;94.80;;;;;;5070007;28;20062;-70
2023/08/02 06:27:55;;;;;;;6.70;3.83;;;16.90;94.80;;;;;;5069192;28;20111;-69
2023/08/02 06:30:20;;;;;;;6.57;3.50;;;16.90;95.00;;;;;;5069925;28;20029;-69
2023/08/02 06:32:46;;;;;;;5.97;3.80;;;16.90;95.20;;;;;;5069838;28;20029;-69
2023/08/02 06:35:12;;;;;;;7.15;3.60;;;16.90;95.40;;;;;;5069819;28;20041;-70
2023/08/02 06:37:38;;;;;;;6.78;4.13;;;16.90;95.50;;;;;;5069113;28;20013;-70
2023/08/02 06:40:04;;;;;;;5.68;3.35;;;16.90;95.70;;;;;;5068432;28;20020;-70
2023/08/02 06:42:30;;;;;;;5.70;3.33;;;16.90;95.70;;;;;;5070126;28;20024;-69
2023/08/02 06:44:57;;;;;;;6.40;3.08;;;16.90;95.70;;;;;;5069705;28;20490;-69
2023/08/02 06:47:22;;;;;;;5.15;3.40;;;16.90;95.70;;;;;;5068976;28;20023;-69
2023/08/02 06:49:48;;;;;;;7.65;3.50;;;16.90;95.70;;;;;;5068381;28;20479;-69
2023/08/02 06:52:14;;;;;;;7.10;3.20;;;16.90;95.70;;;;;;5070059;28;20028;-70
2023/08/02 06:54:39;;;;;;;6.15;3.45;;;16.90;95.70;;;;;;5069456;28;20021;-70
2023/08/02 06:57:05;;;;;;;6.70;3.30;;;16.90;95.80;;;;;;5068876;28;20088;-70
2023/08/02 06:59:31;;;;;;;5.18;2.95;;;16.90;96.00;;;;;;5069582;28;20391;-70
2023/08/02 07:01:57;;;;;;;4.63;2.97;;;16.90;96.00;;;;;;5069601;28;20024;-69
2023/08/02 07:04:22;;;;;;;5.03;3.20;;;16.90;96.00;;;;;;5068698;28;20091;-69
2023/08/02 07:06:48;;;;;;;6.57;3.50;;;16.90;95.90;;;;;;5069617;28;20036;-69
2023/08/02 07:09:14;;;;;;;5.95;3.33;;;16.90;96.00;;;;;;5069700;28;20263;-69
2023/08/02 07:11:40;;;;;;;5.60;3.10;;;16.80;96.00;;;;;;5062194;28;20081;-69
2023/08/02 07:14:06;;;;;;;5.35;3.17;;;16.90;96.00;;;;;;5069455;28;20095;-69
2023/08/02 07:16:32;;;;;;;5.72;3.35;;;16.90;96.00;;;;;;5069392;28;20458;-69
2023/08/02 07:19:00;;;;;;;5.68;3.40;;;16.90;96.00;;;;;;5068866;28;20103;-70
2023/08/02 07:21:25;;;;;;;5.38;3.33;;;16.90;96.20;;;;;;5061181;28;20123;-70
2023/08/02 07:23:51;;;;;;;4.60;3.35;;;16.80;96.40;;;;;;5068085;28;20120;-69
2023/08/02 07:26:17;;;;;;;4.53;2.92;;;16.80;96.70;;;;;;5069265;28;20025;-69
2023/08/02 07:28:43;;;;;;;5.00;3.05;;;16.70;96.90;;;;;;5068579;28;20027;-69
2023/08/02 07:31:10;;;;;;;4.30;3.05;;;16.70;97.10;;;;;;5065354;28;20039;-69
2023/08/02 07:33:36;;;;;;;4.45;2.92;;;16.70;97.20;;;;;;5069050;28;20016;-69
2023/08/02 07:36:03;;;;;;;4.63;3.15;;;16.70;97.40;;;;;;5071728;28;20180;-69
2023/08/02 07:38:28;;;;;;;4.55;2.78;;;16.80;97.50;;;;;;5072153;28;20862;-69
2023/08/02 07:40:54;;;;;;;3.97;2.60;;;16.80;97.50;;;;;;5072814;28;20117;-69
2023/08/02 07:43:20;;;;;;;4.43;2.88;;;16.90;97.50;;;;;;5072769;28;20028;-69
2023/08/02 07:45:45;;;;;;;3.50;2.40;;;16.90;97.60;;;;;;5073122;28;20024;-69
2023/08/02 07:48:11;;;;;;;3.50;2.70;;;16.90;97.80;;;;;;5072304;28;20027;-69
2023/08/02 07:50:36;;;;;;;3.65;2.58;;;16.90;97.70;;;;;;5072758;28;20027;-69
2023/08/02 07:53:02;;;;;;;5.45;2.88;;;16.90;97.80;;;;;;5072438;28;20107;-69
2023/08/02 07:55:28;;;;;;;4.65;2.63;;;17.00;97.70;;;;;;5072511;28;20082;-69
2023/08/02 07:57:53;;;;;;;3.42;2.30;;;16.90;97.70;;;;;;5072647;28;20032;-69
2023/08/02 08:00:19;;;;;;;3.08;2.50;;;16.90;97.80;;;;;;5072596;28;20035;-70
2023/08/02 08:02:45;;;;;;;3.22;2.30;;;16.90;97.90;;;;;;5069851;28;20539;-69
2023/08/02 08:05:10;;;;;;;3.83;2.20;;;17.00;98.00;;;;;;5070201;28;20047;-69
2023/08/02 08:07:36;;;;;;;3.28;2.05;;;17.00;97.90;;;;;;5072595;28;20067;-69
2023/08/02 08:10:02;;;;;;;2.22;1.92;;;17.00;98.00;;;;;;5071171;28;20368;-69
2023/08/02 08:12:27;;;;;;;3.35;2.63;;;17.00;98.00;;;;;;5068621;28;20108;-69
2023/08/02 08:14:53;;;;;;;2.83;2.08;;;17.00;98.20;;;;;;5067679;28;20024;-70
2023/08/02 08:17:19;;;;;;;2.33;2.00;;;17.00;98.30;;;;;;5072383;28;20407;-69
2023/08/02 08:19:44;;;;;;;2.78;2.40;;;17.00;98.40;;;;;;5072331;28;20020;-69
2023/08/02 08:22:10;;;;;;;3.22;1.98;;;17.10;98.30;;;;;;5063921;28;20024;-70
2023/08/02 08:24:36;;;;;;;2.97;2.10;;;17.10;98.30;;;;;;5072102;28;20375;-69
2023/08/02 08:27:02;;;;;;;3.00;1.85;;;17.20;98.30;;;;;;5072121;28;20368;-70
2023/08/02 08:29:28;;;;;;;2.60;2.13;;;17.20;98.30;;;;;;5071593;28;20024;-70
2023/08/02 08:31:54;;;;;;;2.15;1.65;;;17.20;98.30;;;;;;5071805;28;20036;-69
2023/08/02 08:34:20;;;;;;;2.20;1.77;;;17.20;98.30;;;;;;5072454;28;20071;-68
2023/08/02 08:36:46;;;;;;;2.33;1.80;;;17.20;98.40;;;;;;5072471;28;20020;-69
2023/08/02 08:39:11;;;;;;;1.90;1.63;;;17.30;98.40;;;;;;5070361;28;20479;-69
2023/08/02 08:41:37;;;;;;;2.22;1.85;;;17.30;98.30;;;;;;5071856;28;20083;-69
2023/08/02 08:44:03;;;;;;;2.65;1.80;;;17.30;98.30;;;;;;5071906;28;20497;-69
2023/08/02 08:46:33;;;;;;;2.15;1.50;;;17.40;98.30;;;;;;5070902;28;20024;-69
2023/08/02 08:49:00;;;;;;;1.85;1.75;;;17.50;98.20;;;;;;5071722;28;20052;-69
2023/08/02 08:51:29;;;;;;;2.10;1.40;;;17.50;98.20;;;;;;5071644;28;20028;-70
2023/08/02 08:54:00;;;;;;;2.20;2.00;;;17.50;98.20;;;;;;5070011;28;20368;-70
2023/08/02 08:56:26;;;;;;;2.05;1.85;;;17.60;98.10;;;;;;5062643;28;20525;-69
2023/08/02 08:58:53;;;;;;;1.50;1.40;;;17.60;98.10;;;;;;5068855;28;20031;-69
2023/08/02 09:01:19;;;;;;;2.22;1.55;;;17.60;98.00;;;;;;5071462;28;20019;-69
2023/08/02 09:03:45;;;;;;;1.60;1.50;;;17.60;97.90;;;;;;5070684;28;20020;-69
2023/08/02 09:06:14;;;;;;;1.80;1.48;;;17.60;98.00;;;;;;5071199;28;20139;-69
2023/08/02 09:08:44;;;;;;;1.58;1.40;;;17.60;98.10;;;;;;5071217;28;20044;-69
2023/08/02 09:11:11;;;;;;;1.65;1.27;;;17.70;98.00;;;;;;5070199;28;20111;-69
2023/08/02 09:13:37;;;;;;;1.10;1.00;;;17.70;97.90;;;;;;5070216;28;20440;-69
2023/08/02 09:16:11;;;;;;;1.83;1.40;;;17.80;97.90;;;;;;5069851;28;20035;-69
2023/08/02 09:18:38;;;;;;;1.30;1.00;;;17.80;97.80;;;;;;5071006;28;20024;-69
2023/08/02 09:21:05;;;;;;;1.10;1.00;;;17.90;97.70;;;;;;5071587;28;20025;-71
2023/08/02 09:23:31;;;;;;;1.75;1.00;;;17.90;97.60;;;;;;5068911;28;20039;-68
2023/08/02 09:26:13;;;;;;;0.82;0.80;;;18.00;97.50;;;;;;5069320;28;20483;-69
2023/08/02 09:28:38;;;;;;;;;;;18.00;97.60;;;;;;5071257;28;20036;-69
2023/08/02 09:31:17;;;;;;;0.77;0.75;;;18.00;97.80;;;;;;5070092;28;20037;-68
2023/08/02 09:33:51;;;;;;;0.85;0.85;;;18.10;97.70;;;;;;5070734;28;20027;-69
2023/08/02 09:36:31;;;;;;;0.95;0.93;;;18.10;97.70;;;;;;5071053;28;20031;-69
2023/08/02 09:39:01;;;;;;;1.40;1.00;;;18.20;97.70;;;;;;5070326;28;20399;-68
2023/08/02 09:41:28;;;;;;;1.33;1.08;;;18.30;97.80;;;;;;5070395;28;20494;-69
2023/08/02 09:43:54;;;;;;;0.80;0.80;;;18.30;97.70;;;;;;5070628;28;20301;-69
2023/08/02 09:46:24;;;;;;;1.10;1.00;;;18.40;97.60;;;;;;5070595;28;20066;-69
2023/08/02 09:48:49;;;;;;;1.30;1.20;;;18.50;97.50;;;;;;5069855;28;20104;-69
2023/08/02 09:51:15;;;;;;;1.50;1.27;;;18.70;97.40;;;;;;5070297;28;20551;-69
2023/08/02 09:53:41;;;;;;;1.40;1.30;;;18.70;97.30;;;;;;5070396;28;20031;-68
2023/08/02 09:56:07;;;;;;;1.38;1.27;;;18.80;97.30;;;;;;5070183;28;20089;-68
2023/08/02 09:58:38;;;;;;;2.00;1.90;;;18.80;97.30;;;;;;5067205;28;20044;-68
2023/08/02 10:01:03;;;;;;;1.40;1.30;;;18.80;97.30;;;;;;5070299;28;20091;-69
2023/08/02 10:03:32;;;;;;;1.60;1.50;;;19.00;97.60;;;;;;5069749;28;20108;-69
2023/08/02 10:06:03;;;;;;;1.75;1.65;;;19.10;97.30;;;;;;5069998;28;20082;-69
2023/08/02 10:08:31;;;;;;;1.80;1.70;;;19.30;97.10;;;;;;5070152;28;20020;-69
2023/08/02 10:10:59;;;;;;;2.60;2.40;;;19.40;96.90;;;;;;5069816;28;20371;-69
2023/08/02 10:13:30;;;;;;;1.88;1.77;;;19.40;96.80;;;;;;5069951;28;20013;-69
2023/08/02 10:15:57;;;;;;;1.85;1.75;;;19.50;96.80;;;;;;5070075;28;20391;-69
2023/08/02 10:18:24;;;;;;;2.20;1.80;;;19.60;96.80;;;;;;5069705;28;20423;-69
2023/08/02 10:20:51;;;;;;;1.60;1.50;;;19.70;96.70;;;;;;5068565;28;20387;-69
2023/08/02 10:23:16;;;;;;;2.25;2.05;;;19.90;96.60;;;;;;5068488;28;20017;-70
2023/08/02 10:25:43;;;;;;;3.00;2.72;;;19.90;96.50;;;;;;5070399;28;20312;-69
2023/08/02 10:28:10;;;;;;;2.50;2.30;;;20.00;96.20;;;;;;5068944;28;20047;-70
2023/08/02 10:30:36;;;;;;;2.42;2.20;;;19.90;96.20;;;;;;5069945;28;20027;-70
2023/08/02 10:33:14;;;;;;;2.45;2.00;;;20.00;96.20;;;;;;5069974;28;20357;-69
2023/08/02 10:35:55;;;;;;;2.70;2.50;;;20.00;96.10;;;;;;5069681;28;20255;-69
2023/08/02 10:38:45;;;;;;;3.60;3.13;;;20.00;96.10;;;;;;5070076;28;20364;-69
2023/08/02 10:41:16;;;;;;;3.17;2.42;;;20.00;96.10;;;;;;5066659;28;20025;-69
2023/08/02 10:43:54;;;;;;;2.28;1.88;;;20.00;96.20;;;;;;5068931;28;20487;-70
2023/08/02 10:46:28;;;;;;;3.45;3.15;;;20.10;96.20;;;;;;5068385;28;20039;-69
2023/08/02 10:48:55;;;;;;;3.08;2.78;;;20.20;96.30;;;;;;5070035;28;20025;-70
2023/08/02 10:51:27;;;;;;;2.75;2.55;;;20.20;96.30;;;;;;5070200;28;20028;-70
2023/08/02 10:54:19;;;;;;;4.35;3.97;;;20.40;96.30;;;;;;5069182;28;20025;-69
2023/08/02 10:56:54;;;;;;;3.63;2.83;;;20.40;96.30;;;;;;5064093;28;20052;-70
2023/08/02 10:59:23;;;;;;;4.50;4.10;;;20.40;96.20;;;;;;5069869;28;20048;-70
2023/08/02 11:01:59;;;;;;;3.20;2.90;;;20.50;96.20;;;;;;5069858;28;20013;-69
2023/08/02 11:04:25;;;;;;;2.78;2.58;;;20.60;96.20;;;;;;5068808;28;20070;-69
2023/08/02 11:06:51;;;;;;;2.60;2.40;;;20.80;96.00;;;;;;5069878;28;20487;-70
2023/08/02 11:09:17;;;;;;;4.15;3.17;;;20.90;95.80;;;;;;5070318;28;20166;-70
2023/08/02 11:11:43;;;;;;;2.65;2.40;;;21.10;95.60;;;;;;5073242;28;20016;-70
2023/08/02 11:14:09;;;;;;;2.28;2.08;;;21.30;95.40;;;;;;5073543;28;20029;-70
2023/08/02 11:16:41;;;;;;;2.83;2.53;;;21.60;95.20;;;;;;5073399;28;20095;-70
2023/08/02 11:19:10;;;;;;;4.18;2.67;;;21.80;94.80;;;;;;5072601;28;20098;-70
2023/08/02 11:21:51;;;;;;;2.78;2.30;;;21.80;94.60;;;;;;5072068;28;20048;-70
2023/08/02 11:24:16;;;;;;;2.03;1.70;;;21.70;94.50;;;;;;5073398;28;20383;-69
2023/08/02 11:26:42;;;;;;;3.33;2.90;;;21.70;94.40;;;;;;5068985;28;20021;-70
2023/08/02 11:29:08;;;;;;;2.90;2.00;;;21.60;94.10;;;;;;5070537;28;20049;-69
2023/08/02 11:31:34;;;;;;;2.67;2.20;;;21.50;94.10;;;;;;5072760;28;20032;-70
2023/08/02 11:34:01;;;;;;;2.17;2.08;;;21.40;94.10;;;;;;5073040;28;20057;-70
2023/08/02 11:36:32;;;;;;;2.20;2.00;;;21.40;94.20;;;;;;5072095;28;20066;-70
2023/08/02 11:38:58;;;;;;;2.00;1.80;;;21.30;94.30;;;;;;5073343;28;20029;-70
2023/08/02 11:41:23;;;;;;;2.75;1.70;;;21.20;94.30;;;;;;5072784;28;20426;-69
2023/08/02 11:43:49;;;;;;;1.50;1.40;;;21.10;94.40;;;;;;5072946;28;20079;-69
2023/08/02 11:46:21;;;;;;;1.70;1.60;;;21.00;94.40;;;;;;5071446;28;20032;-70
2023/08/02 11:48:50;;;;;;;1.58;1.48;;;21.00;94.50;;;;;;5072780;28;20028;-70
2023/08/02 11:51:18;;;;;;;1.58;1.48;;;21.00;94.60;;;;;;5073147;28;20033;-70
2023/08/02 11:53:59;;;;;;;1.90;1.80;;;20.90;94.60;;;;;;5073127;28;20016;-69
2023/08/02 11:56:26;;;;;;;2.85;2.00;;;20.90;94.70;;;;;;5071953;28;20013;-70
2023/08/02 11:58:53;;;;;;;1.92;1.83;;;20.90;94.70;;;;;;5069398;28;20108;-69
2023/08/02 12:01:19;;;;;;;1.75;1.65;;;20.80;94.80;;;;;;5072994;28;20421;-69
2023/08/02 12:03:55;;;;;;;2.55;1.90;;;20.80;94.80;;;;;;5071465;28;20107;-69
2023/08/02 12:06:21;;;;;;;2.85;2.40;;;20.90;94.80;;;;;;5072329;28;20020;-69
2023/08/02 12:08:58;;;;;;;2.42;2.00;;;21.00;94.80;;;;;;5072417;28;20023;-69
2023/08/02 12:11:24;;;;;;;2.10;1.95;;;21.20;94.80;;;;;;5071821;28;20021;-69
2023/08/02 12:13:50;;;;;;;3.45;2.20;;;21.50;94.50;;;;;;5071922;28;20021;-69
2023/08/02 12:16:17;;;;;;;3.90;3.58;;;21.60;94.30;;;;;;5072234;28;20025;-70
2023/08/02 12:18:58;;;;;;;4.35;3.00;;;21.60;93.90;;;;;;5072296;28;20141;-69
2023/08/02 12:21:25;;;;;;;3.10;2.80;;;21.50;94.00;;;;;;5067616;28;20371;-69
2023/08/02 12:23:52;;;;;;;2.88;2.67;;;21.40;94.10;;;;;;5072073;28;20070;-69
2023/08/02 12:26:31;;;;;;;2.42;2.10;;;21.30;94.30;;;;;;5071674;28;20403;-69
2023/08/02 12:28:57;;;;;;;1.83;1.60;;;21.30;94.50;;;;;;5071499;28;20024;-69
2023/08/02 12:31:22;;;;;;;1.48;1.38;;;21.20;94.50;;;;;;5071757;28;20064;-69
2023/08/02 12:33:48;;;;;;;1.38;1.27;;;21.30;94.50;;;;;;5070721;28;20062;-69
2023/08/02 12:36:24;;;;;;;1.20;1.20;;;21.30;94.50;;;;;;5071632;28;20108;-70
2023/08/02 12:38:50;;;;;;;1.58;1.30;;;21.50;94.50;;;;;;5071377;28;20016;-69
2023/08/02 12:41:16;;;;;;;1.95;1.52;;;21.70;94.40;;;;;;5071715;28;20035;-70
2023/08/02 12:43:41;;;;;;;1.80;1.30;;;21.90;94.10;;;;;;5072415;28;20028;-70
2023/08/02 12:46:07;;;;;;;1.50;1.40;;;22.20;94.00;;;;;;5067573;28;20025;-70